Time;durP1;ratioP1;P1;durP2;ratioP2;P2;SDS_P1;SDS_P2;PMS_P1;PMS_P2;Temp;Humidity;BMP_temperature;BMP_pressure;BME280_temperature;BME280_humidity;BME280_pressure;Samples;Min_cycle;Max_cycle;Signal;HPM_P1;HPM_P2
2022/09/20 00:05:34;;;;;;;5.55;4.15;;;9.60;99.90;;;;;;5149629;27;20694;-89
2022/09/20 00:10:41;;;;;;;3.83;3.42;;;9.50;99.90;;;;;;5251310;23;20244;-90
2022/09/20 00:15:46;;;;;;;4.00;3.70;;;9.50;99.90;;;;;;5400033;22;20239;-90
2022/09/20 00:18:13;;;;;;;3.55;3.10;;;9.60;99.90;;;;;;5098227;28;20253;-87
2022/09/20 00:20:48;;;;;;;5.57;3.47;;;9.70;99.90;;;;;;5092052;28;20305;-90
2022/09/20 00:23:16;;;;;;;2.95;2.67;;;9.80;99.90;;;;;;5094865;28;20221;-87
2022/09/20 00:25:52;;;;;;;3.65;2.50;;;9.80;99.90;;;;;;5596444;22;21210;-87
2022/09/20 00:28:19;;;;;;;3.85;2.83;;;9.90;99.90;;;;;;5655743;22;20214;-86
2022/09/20 00:41:39;;;;;;;3.90;3.13;;;10.00;99.90;;;;;;5590523;22;20217;-87
2022/09/20 00:49:27;;;;;;;8.85;3.53;;;10.10;99.90;;;;;;5568673;22;20240;-90
2022/09/20 00:51:58;;;;;;;5.22;2.88;;;10.20;99.90;;;;;;5590439;22;20615;-87
2022/09/20 00:54:28;;;;;;;4.30;3.45;;;10.40;99.90;;;;;;5121727;28;20309;-90
2022/09/20 00:59:42;;;;;;;2.95;2.67;;;10.30;99.90;;;;;;5992304;22;21374;-90
2022/09/20 01:29:24;;;;;;;6.85;3.10;;;10.30;99.90;;;;;;5715307;22;20210;-88
2022/09/20 01:40:22;;;;;;;6.55;2.58;;;10.00;99.90;;;;;;5311283;22;20252;-88
2022/09/20 01:43:10;;;;;;;5.85;3.60;;;10.00;99.90;;;;;;5040350;28;20186;-86
2022/09/20 01:45:45;;;;;;;3.60;2.88;;;10.20;99.90;;;;;;5057319;28;20179;-88
2022/09/20 01:51:26;;;;;;;8.15;2.45;;;10.20;99.90;;;;;;5142764;22;20253;-87
2022/09/20 01:59:26;;;;;;;2.67;2.35;;;10.30;99.90;;;;;;5499716;22;20310;-87
2022/09/20 02:01:59;;;;;;;3.05;2.35;;;10.20;99.90;;;;;;5032191;28;20223;-87
2022/09/20 02:15:13;;;;;;;2.10;1.90;;;10.00;99.90;;;;;;5264082;22;20355;-90
2022/09/20 02:28:48;;;;;;;1.98;1.77;;;9.60;99.90;;;;;;5499686;22;20245;-89
2022/09/20 02:31:38;;;;;;;2.88;2.40;;;9.60;99.90;;;;;;5040905;28;20258;-89
2022/09/20 02:34:24;;;;;;;2.85;2.42;;;9.50;99.90;;;;;;5019502;28;20233;-90
2022/09/20 02:37:08;;;;;;;4.20;3.00;;;9.60;99.90;;;;;;5037478;28;20237;-89
2022/09/20 02:40:03;;;;;;;3.75;2.75;;;9.60;99.90;;;;;;5044017;28;20216;-88
2022/09/20 02:42:43;;;;;;;3.38;2.72;;;9.60;99.90;;;;;;5088264;22;20237;-89
2022/09/20 02:45:40;;;;;;;3.80;3.45;;;9.60;99.90;;;;;;5435384;22;20241;-89
2022/09/20 02:48:23;;;;;;;4.40;2.83;;;9.50;99.90;;;;;;5038507;28;20255;-88
2022/09/20 02:56:38;;;;;;;5.03;3.45;;;9.50;99.90;;;;;;5328216;22;21532;-90
2022/09/20 02:59:30;;;;;;;5.05;3.47;;;9.40;99.90;;;;;;5047574;28;20198;-88
2022/09/20 03:02:21;;;;;;;3.45;3.15;;;9.30;99.90;;;;;;5211134;22;20262;-88
2022/09/20 03:35:21;;;;;;;9.20;4.10;;;9.40;99.90;;;;;;5914754;22;20207;-87
2022/09/20 03:38:08;;;;;;;3.72;3.13;;;9.50;99.90;;;;;;5322350;22;20241;-87
2022/09/20 03:40:51;;;;;;;3.78;2.92;;;9.60;99.90;;;;;;5043600;28;20258;-89
2022/09/20 03:54:26;;;;;;;2.70;2.50;;;10.10;99.90;;;;;;5153910;22;20234;-87
2022/09/20 03:57:31;;;;;;;2.92;2.50;;;10.00;99.90;;;;;;5045763;28;20216;-88
2022/09/20 04:00:01;;;;;;;2.40;2.15;;;9.90;99.90;;;;;;5051142;28;20208;-87
2022/09/20 04:03:06;;;;;;;4.13;2.50;;;9.90;99.90;;;;;;5046214;28;20201;-85
2022/09/20 04:08:30;;;;;;;8.10;4.40;;;10.00;99.90;;;;;;5070616;22;20234;-86
2022/09/20 04:11:07;;;;;;;8.45;6.03;;;9.90;99.90;;;;;;5039794;28;20268;-86
2022/09/20 04:13:39;;;;;;;12.05;5.72;;;9.90;99.90;;;;;;5040887;28;20244;-85
2022/09/20 04:16:38;;;;;;;10.32;6.88;;;9.90;99.90;;;;;;5045254;28;20214;-86
2022/09/20 04:19:34;;;;;;;16.25;9.52;;;10.00;99.90;;;;;;5043895;28;20289;-86
2022/09/20 04:22:02;;;;;;;7.82;6.30;;;10.00;99.90;;;;;;5041082;28;20356;-87
2022/09/20 04:24:49;;;;;;;11.18;5.82;;;10.00;99.90;;;;;;5028221;28;20542;-85
2022/09/20 04:27:21;;;;;;;5.97;5.35;;;10.10;99.90;;;;;;5018672;28;20238;-88
2022/09/20 04:30:18;;;;;;;5.90;5.30;;;10.10;99.90;;;;;;5037475;28;20424;-85
2022/09/20 04:32:57;;;;;;;5.93;4.82;;;10.00;99.90;;;;;;5034307;28;20255;-87
2022/09/20 04:38:38;;;;;;;8.95;8.05;;;10.00;99.90;;;;;;5041502;28;20203;-89
2022/09/20 04:41:45;;;;;;;8.07;6.57;;;10.10;99.90;;;;;;5026913;28;20191;-83
2022/09/20 04:44:51;;;;;;;7.50;6.78;;;10.20;99.90;;;;;;5050374;28;20191;-86
2022/09/20 04:47:43;;;;;;;9.05;7.60;;;10.30;99.90;;;;;;5039081;28;20457;-88
2022/09/20 04:50:52;;;;;;;9.45;8.50;;;10.20;99.90;;;;;;5038891;28;20212;-88
2022/09/20 04:53:56;;;;;;;10.55;9.50;;;10.10;99.90;;;;;;5040769;28;20253;-89
2022/09/20 04:56:51;;;;;;;10.40;8.93;;;10.10;99.90;;;;;;5040073;28;20283;-88
2022/09/20 04:59:54;;;;;;;13.10;9.20;;;10.00;99.90;;;;;;5042184;28;20210;-88
2022/09/20 05:03:15;;;;;;;10.90;9.90;;;10.00;99.90;;;;;;5037240;28;20241;-87
2022/09/20 05:06:22;;;;;;;11.43;9.57;;;10.00;99.90;;;;;;4964835;29;20214;-88
2022/09/20 05:09:27;;;;;;;10.40;9.13;;;9.90;99.90;;;;;;4966548;28;20225;-86
2022/09/20 05:15:42;;;;;;;11.20;10.10;;;10.00;99.90;;;;;;5179423;22;20793;-89
2022/09/20 05:18:47;;;;;;;10.68;9.25;;;10.10;99.90;;;;;;5041523;28;20627;-87
2022/09/20 05:21:43;;;;;;;10.77;9.13;;;10.10;99.90;;;;;;5039150;28;20214;-85
2022/09/20 05:24:20;;;;;;;13.00;9.65;;;10.00;99.90;;;;;;5040838;28;20210;-88
2022/09/20 05:27:09;;;;;;;12.15;9.55;;;10.00;99.90;;;;;;5041821;28;20241;-85
2022/09/20 05:29:42;;;;;;;13.23;8.57;;;10.10;99.90;;;;;;5039718;28;20238;-86
2022/09/20 05:32:40;;;;;;;11.57;9.23;;;10.10;99.90;;;;;;5039921;28;20719;-86
2022/09/20 05:35:21;;;;;;;9.57;8.43;;;10.10;99.90;;;;;;5039844;28;20234;-82
2022/09/20 05:38:04;;;;;;;11.93;8.85;;;10.10;99.90;;;;;;5039859;28;20201;-86
2022/09/20 05:40:59;;;;;;;9.35;8.40;;;10.00;99.90;;;;;;5021902;28;20206;-86
2022/09/20 05:43:38;;;;;;;8.23;7.53;;;10.00;99.90;;;;;;5038315;28;20316;-86
2022/09/20 05:46:14;;;;;;;11.10;6.85;;;10.10;99.90;;;;;;5026377;28;20207;-85
2022/09/20 05:49:06;;;;;;;8.38;6.60;;;10.20;99.90;;;;;;5021172;28;20261;-83
2022/09/20 05:51:50;;;;;;;8.43;7.38;;;10.30;99.90;;;;;;5039903;28;20245;-88
2022/09/20 05:54:52;;;;;;;8.48;7.43;;;10.30;99.90;;;;;;5039546;28;20567;-86
2022/09/20 05:57:40;;;;;;;8.48;7.53;;;10.30;99.90;;;;;;5019048;28;20516;-79
2022/09/20 06:00:15;;;;;;;6.78;6.10;;;10.30;99.90;;;;;;5034038;28;20257;-84
2022/09/20 06:02:58;;;;;;;9.30;6.97;;;10.40;99.90;;;;;;5038478;28;20476;-84
2022/09/20 06:05:48;;;;;;;7.18;6.43;;;10.60;99.90;;;;;;5035736;28;20247;-85
2022/09/20 06:08:42;;;;;;;9.27;7.30;;;10.60;99.90;;;;;;5034533;28;20262;-86
2022/09/20 06:11:49;;;;;;;9.18;6.80;;;10.80;99.90;;;;;;5037204;28;20215;-89
2022/09/20 06:14:47;;;;;;;7.60;6.80;;;10.80;99.90;;;;;;5001208;28;20236;-87
2022/09/20 06:17:25;;;;;;;9.13;6.85;;;11.00;99.90;;;;;;5036411;28;20349;-89
2022/09/20 06:20:10;;;;;;;7.15;5.90;;;11.10;99.90;;;;;;5032355;28;20583;-85
2022/09/20 06:22:48;;;;;;;8.18;5.20;;;11.20;99.90;;;;;;5039074;28;20229;-85
2022/09/20 06:25:39;;;;;;;7.47;5.95;;;11.10;99.90;;;;;;5023752;28;20252;-86
2022/09/20 06:28:16;;;;;;;6.95;5.15;;;11.30;99.90;;;;;;5041394;28;20204;-85
2022/09/20 06:30:49;;;;;;;8.65;5.78;;;11.40;99.90;;;;;;5044857;28;20248;-87
2022/09/20 06:33:23;;;;;;;9.85;5.40;;;11.50;99.90;;;;;;5500144;22;20235;-88
2022/09/20 06:35:53;;;;;;;7.13;4.70;;;11.60;99.90;;;;;;5053767;28;20218;-87
2022/09/20 06:43:49;;;;;;;8.20;5.07;;;11.50;99.90;;;;;;5042408;28;20274;-86
2022/09/20 06:46:18;;;;;;;7.03;4.60;;;11.60;99.90;;;;;;5426286;22;20239;-85
2022/09/20 06:48:46;;;;;;;7.25;5.00;;;11.70;99.90;;;;;;5052311;28;20199;-86
2022/09/20 06:51:12;;;;;;;4.82;4.38;;;11.60;99.90;;;;;;5059899;28;20206;-83
2022/09/20 06:53:40;;;;;;;5.10;4.28;;;11.60;99.90;;;;;;5134259;22;20265;-87
2022/09/20 06:56:12;;;;;;;8.90;4.50;;;11.60;99.90;;;;;;5045431;28;20403;-88
2022/09/20 06:58:39;;;;;;;9.50;5.10;;;11.60;99.90;;;;;;5333953;22;21532;-87
2022/09/20 07:01:06;;;;;;;10.25;5.68;;;11.60;99.90;;;;;;5026880;28;20223;-88
2022/09/20 07:03:36;;;;;;;5.20;4.80;;;11.80;99.90;;;;;;5041407;28;20199;-89
2022/09/20 07:06:03;;;;;;;4.35;3.95;;;11.90;99.90;;;;;;5039950;28;20266;-86
2022/09/20 07:08:31;;;;;;;5.50;5.00;;;11.90;99.90;;;;;;5302521;22;20227;-86
2022/09/20 07:11:07;;;;;;;14.70;4.90;;;12.00;99.90;;;;;;5065801;28;20371;-90
2022/09/20 07:13:35;;;;;;;9.98;8.98;;;12.20;99.90;;;;;;5549746;22;20243;-84
2022/09/20 07:16:05;;;;;;;9.13;5.22;;;12.40;99.90;;;;;;5235590;22;20288;-87
2022/09/20 07:18:33;;;;;;;6.97;5.18;;;12.30;99.90;;;;;;5046982;28;20299;-88
2022/09/20 07:21:00;;;;;;;5.07;4.57;;;12.20;99.90;;;;;;5050080;28;20238;-85
2022/09/20 07:26:00;;;;;;;6.93;5.10;;;12.20;99.90;;;;;;5291748;22;20209;-82
2022/09/20 07:28:28;;;;;;;4.90;4.40;;;12.10;99.90;;;;;;5032583;28;20397;-85
2022/09/20 07:30:55;;;;;;;8.02;5.07;;;12.10;99.90;;;;;;5222793;22;20252;-87
2022/09/20 07:33:24;;;;;;;5.22;4.35;;;12.20;99.90;;;;;;5041617;28;20211;-85
2022/09/20 07:35:53;;;;;;;3.90;3.35;;;12.20;99.90;;;;;;5042682;28;20274;-88
2022/09/20 07:38:21;;;;;;;3.78;3.47;;;12.20;99.90;;;;;;5626721;22;20229;-87
2022/09/20 07:43:24;;;;;;;4.03;3.63;;;12.50;99.90;;;;;;5160704;22;20416;-86
2022/09/20 07:45:56;;;;;;;4.90;4.28;;;12.90;99.90;;;;;;5137335;22;20230;-89
2022/09/20 07:48:26;;;;;;;4.18;3.55;;;13.30;99.90;;;;;;5062877;28;20230;-84
2022/09/20 07:50:57;;;;;;;3.75;3.45;;;13.50;99.90;;;;;;5073917;22;20228;-85
2022/09/20 07:53:25;;;;;;;5.55;3.55;;;13.50;99.90;;;;;;5042562;28;20207;-86
2022/09/20 07:56:19;;;;;;;4.38;3.92;;;13.60;99.90;;;;;;5046039;28;20227;-85
2022/09/20 07:58:50;;;;;;;4.45;3.47;;;14.20;99.90;;;;;;5040666;28;20263;-85
2022/09/20 08:01:19;;;;;;;6.32;3.35;;;14.30;99.90;;;;;;5162316;22;20243;-84
2022/09/20 08:03:47;;;;;;;3.90;3.58;;;14.20;99.90;;;;;;5048205;28;20208;-87
2022/09/20 08:06:17;;;;;;;4.55;4.15;;;13.80;99.90;;;;;;5050177;28;20211;-85
2022/09/20 08:08:44;;;;;;;4.30;3.70;;;13.90;99.90;;;;;;5130314;22;20254;-83
2022/09/20 08:11:14;;;;;;;7.40;4.07;;;14.10;99.90;;;;;;5318088;22;20220;-84
2022/09/20 08:13:44;;;;;;;3.08;2.88;;;14.30;99.90;;;;;;5676336;22;20244;-86
2022/09/20 08:16:20;;;;;;;4.55;3.35;;;15.30;99.90;;;;;;5629195;22;20557;-84
2022/09/20 08:18:55;;;;;;;2.78;2.38;;;15.10;99.90;;;;;;5176038;22;20247;-86
2022/09/20 08:21:27;;;;;;;4.57;3.55;;;14.40;99.90;;;;;;5112306;22;20307;-84
2022/09/20 08:23:54;;;;;;;4.03;3.20;;;14.10;99.90;;;;;;5693594;22;20228;-85
2022/09/20 08:26:23;;;;;;;3.70;3.40;;;13.80;99.90;;;;;;5048221;28;20232;-83
2022/09/20 08:28:53;;;;;;;5.03;3.45;;;13.50;99.90;;;;;;5033899;28;20227;-86
2022/09/20 08:31:23;;;;;;;5.32;3.28;;;13.40;99.90;;;;;;5048618;28;20220;-86
2022/09/20 08:33:51;;;;;;;3.80;3.42;;;13.70;99.90;;;;;;5048228;28;20208;-90
2022/09/20 08:36:21;;;;;;;3.75;3.38;;;14.20;99.90;;;;;;5029300;28;20292;-87
2022/09/20 08:38:48;;;;;;;5.00;2.70;;;16.40;99.90;;;;;;5247912;22;20645;-87
2022/09/20 08:41:58;;;;;;;4.60;2.63;;;19.10;99.90;;;;;;5046779;28;20487;-85
2022/09/20 08:44:31;;;;;;;3.27;2.90;;;20.70;99.90;;;;;;5034714;28;20512;-87
2022/09/20 08:47:18;;;;;;;3.10;2.60;;;21.20;99.90;;;;;;5271270;23;20485;-88
2022/09/20 08:49:46;;;;;;;2.83;2.30;;;20.50;99.90;;;;;;5085959;28;20410;-87
2022/09/20 08:52:21;;;;;;;3.17;2.87;;;19.20;99.90;;;;;;5087609;28;20821;-86
2022/09/20 08:54:49;;;;;;;7.50;3.50;;;18.20;99.90;;;;;;5244500;22;20481;-83
2022/09/20 08:57:19;;;;;;;4.40;3.23;;;17.50;99.90;;;;;;5049795;28;20427;-85
2022/09/20 08:59:47;;;;;;;2.93;2.60;;;16.70;99.90;;;;;;5209682;22;20484;-86
2022/09/20 09:02:19;;;;;;;4.30;3.27;;;16.30;99.90;;;;;;5231305;22;20494;-86
2022/09/20 09:04:48;;;;;;;3.33;2.47;;;15.70;99.90;;;;;;5026477;28;20449;-87
2022/09/20 09:07:20;;;;;;;3.63;3.10;;;15.10;99.90;;;;;;5328397;22;20541;-86
2022/09/20 09:15:28;;;;;;;3.53;3.07;;;15.10;99.90;;;;;;5226439;22;20823;-87
2022/09/20 09:17:56;;;;;;;2.88;2.55;;;15.00;99.90;;;;;;5026870;28;20448;-84
2022/09/20 09:20:23;;;;;;;4.38;2.65;;;14.70;99.90;;;;;;5339992;22;20237;-87
2022/09/20 09:23:05;;;;;;;6.20;3.10;;;14.90;99.90;;;;;;5055343;28;20205;-87
2022/09/20 09:25:37;;;;;;;3.75;2.33;;;15.50;99.90;;;;;;5043613;28;20208;-87
2022/09/20 09:28:07;;;;;;;3.05;2.78;;;15.70;99.90;;;;;;5046649;28;20214;-86
2022/09/20 09:30:43;;;;;;;2.80;2.60;;;15.70;99.90;;;;;;5509438;22;20272;-84
2022/09/20 09:36:07;;;;;;;3.67;3.38;;;15.80;99.90;;;;;;5759060;22;20568;-87
2022/09/20 09:38:37;;;;;;;4.87;4.50;;;15.80;99.90;;;;;;5046225;28;20205;-88
2022/09/20 09:44:18;;;;;;;3.33;3.13;;;14.70;99.90;;;;;;5264957;22;20762;-84
2022/09/20 09:46:45;;;;;;;4.30;3.90;;;14.60;99.90;;;;;;5035388;28;20205;-88
2022/09/20 09:49:28;;;;;;;5.68;3.42;;;14.50;99.90;;;;;;5029203;28;20199;-85
2022/09/20 09:52:23;;;;;;;20.67;4.22;;;14.80;99.90;;;;;;5037331;28;20233;-85
2022/09/20 09:54:58;;;;;;;8.10;3.70;;;15.10;99.90;;;;;;5344861;22;20244;-86
2022/09/20 09:57:50;;;;;;;3.78;3.47;;;15.40;99.90;;;;;;5035569;28;20186;-89
2022/09/20 10:00:21;;;;;;;3.93;2.97;;;15.50;99.90;;;;;;5041629;28;20213;-86
2022/09/20 10:03:07;;;;;;;3.87;2.80;;;16.00;99.90;;;;;;5048435;28;20474;-85
2022/09/20 10:06:04;;;;;;;2.60;2.40;;;16.50;99.90;;;;;;5043919;28;20487;-88
2022/09/20 10:08:58;;;;;;;4.63;3.10;;;16.40;99.90;;;;;;5041188;28;20472;-88
2022/09/20 10:11:50;;;;;;;3.60;3.30;;;16.20;99.90;;;;;;5041877;28;20449;-82
2022/09/20 10:14:48;;;;;;;3.30;3.00;;;15.50;99.90;;;;;;5044424;28;20436;-85
2022/09/20 10:17:51;;;;;;;4.20;2.92;;;15.50;99.90;;;;;;5035818;28;20494;-87
2022/09/20 10:20:56;;;;;;;2.73;2.53;;;16.10;99.90;;;;;;5044241;28;20204;-86
2022/09/20 10:23:40;;;;;;;4.10;3.03;;;16.90;99.90;;;;;;5030644;28;20468;-86
2022/09/20 10:26:52;;;;;;;3.30;2.70;;;17.00;99.90;;;;;;5043665;28;20488;-87
2022/09/20 10:29:46;;;;;;;5.20;2.80;;;16.80;99.90;;;;;;5044985;28;20501;-85
2022/09/20 10:34:56;;;;;;;4.60;3.00;;;15.70;99.90;;;;;;5053690;28;20418;-86
2022/09/20 10:38:02;;;;;;;6.60;2.60;;;15.80;99.90;;;;;;5049028;28;20444;-84
2022/09/20 10:43:49;;;;;;;2.70;2.50;;;16.10;99.90;;;;;;5069981;28;20205;-88
2022/09/20 10:46:50;;;;;;;2.87;2.47;;;16.00;99.90;;;;;;5053462;28;20439;-86
2022/09/20 10:49:56;;;;;;;2.40;2.20;;;16.00;99.90;;;;;;5035864;28;20475;-88
2022/09/20 10:52:53;;;;;;;2.70;1.90;;;16.30;99.90;;;;;;5066092;28;20458;-88
2022/09/20 10:55:33;;;;;;;2.03;1.87;;;16.60;99.90;;;;;;5039306;28;20497;-86
2022/09/20 10:58:27;;;;;;;1.90;1.80;;;16.70;99.90;;;;;;5044535;28;20455;-88
2022/09/20 11:01:05;;;;;;;1.47;1.37;;;16.40;99.90;;;;;;5049725;28;20502;-84
2022/09/20 11:04:12;;;;;;;1.70;1.43;;;16.10;99.90;;;;;;5049913;28;20506;-82
2022/09/20 11:07:02;;;;;;;2.20;1.73;;;15.70;99.90;;;;;;5042556;28;20451;-87
2022/09/20 11:09:36;;;;;;;1.97;1.87;;;15.50;99.90;;;;;;5050158;28;20447;-84
2022/09/20 11:12:22;;;;;;;2.20;2.00;;;15.90;99.90;;;;;;5054152;28;20438;-87
2022/09/20 11:15:03;;;;;;;3.13;2.83;;;16.30;99.90;;;;;;5048892;28;20837;-83
2022/09/20 11:18:00;;;;;;;3.30;2.50;;;16.30;99.90;;;;;;5042835;28;20447;-85
2022/09/20 11:20:43;;;;;;;1.80;1.70;;;16.20;99.90;;;;;;5063096;28;20413;-87
2022/09/20 11:23:20;;;;;;;3.17;2.93;;;16.30;99.90;;;;;;5048439;28;20484;-87
2022/09/20 11:26:03;;;;;;;2.70;1.40;;;16.30;99.90;;;;;;5052800;28;20491;-86
2022/09/20 11:28:36;;;;;;;1.83;1.70;;;16.50;99.90;;;;;;5048428;28;20394;-85
2022/09/20 11:31:13;;;;;;;2.00;1.57;;;16.60;99.90;;;;;;5045162;28;20444;-89
2022/09/20 11:33:55;;;;;;;2.90;1.57;;;16.40;99.90;;;;;;5049436;28;20456;-86
2022/09/20 11:36:44;;;;;;;4.60;1.67;;;16.20;99.90;;;;;;5062481;28;20474;-84
2022/09/20 11:39:41;;;;;;;2.77;2.53;;;16.00;99.90;;;;;;5041287;28;20452;-87
2022/09/20 11:42:19;;;;;;;1.50;1.40;;;15.90;99.90;;;;;;5061434;28;20428;-82
2022/09/20 11:44:46;;;;;;;3.10;2.90;;;16.00;99.90;;;;;;5043309;28;20626;-86
2022/09/20 11:47:24;;;;;;;3.30;1.80;;;16.10;99.90;;;;;;5045104;28;20471;-87
2022/09/20 11:53:29;;;;;;;1.30;1.20;;;16.30;99.90;;;;;;5177452;22;20766;-89
2022/09/20 11:56:18;;;;;;;1.90;1.27;;;16.30;99.90;;;;;;5261135;22;20502;-86
2022/09/20 11:58:54;;;;;;;1.90;1.10;;;16.20;99.90;;;;;;5063428;28;20737;-86
2022/09/20 12:04:19;;;;;;;4.65;1.83;;;15.60;99.90;;;;;;5225390;22;20510;-84
2022/09/20 12:07:06;;;;;;;1.45;1.30;;;15.20;99.90;;;;;;5037047;28;20211;-85
2022/09/20 12:09:43;;;;;;;2.75;1.23;;;14.10;99.90;;;;;;5039168;28;20266;-86
2022/09/20 12:12:33;;;;;;;1.30;1.20;;;13.30;99.90;;;;;;5041125;28;20220;-84
2022/09/20 12:15:04;;;;;;;5.05;1.55;;;12.70;99.90;;;;;;5039740;28;20208;-83
2022/09/20 12:17:46;;;;;;;2.10;1.90;;;12.60;99.90;;;;;;5039702;28;20205;-84
2022/09/20 12:20:31;;;;;;;4.18;2.45;;;12.80;99.90;;;;;;5024131;28;20622;-86
2022/09/20 12:23:36;;;;;;;2.13;2.00;;;12.90;99.90;;;;;;5034287;28;20659;-86
2022/09/20 12:26:06;;;;;;;2.90;2.03;;;13.00;99.90;;;;;;5031059;28;20242;-86
2022/09/20 12:28:38;;;;;;;2.75;2.38;;;13.10;99.90;;;;;;5035461;28;20216;-87
2022/09/20 12:31:18;;;;;;;2.47;1.95;;;13.30;99.90;;;;;;5040091;28;20208;-82
2022/09/20 12:34:10;;;;;;;2.92;2.40;;;13.30;99.90;;;;;;5039950;28;20218;-85
2022/09/20 12:36:54;;;;;;;2.63;2.42;;;13.20;99.90;;;;;;5040780;28;20351;-85
2022/09/20 12:39:51;;;;;;;2.83;2.63;;;13.10;99.90;;;;;;5047727;28;20188;-84
2022/09/20 12:42:30;;;;;;;3.10;2.63;;;13.20;99.90;;;;;;5036092;28;20231;-81
2022/09/20 12:45:14;;;;;;;2.78;2.65;;;13.20;99.90;;;;;;5028854;28;20195;-83
2022/09/20 12:47:52;;;;;;;4.40;3.58;;;13.50;99.90;;;;;;5045199;28;20200;-88
2022/09/20 12:53:15;;;;;;;9.25;2.10;;;14.60;99.90;;;;;;5016873;28;20205;-89
2022/09/20 12:56:02;;;;;;;4.53;1.85;;;15.20;99.90;;;;;;5024393;28;20456;-88
2022/09/20 12:58:50;;;;;;;2.20;1.75;;;15.70;99.90;;;;;;5040765;28;20222;-84
2022/09/20 13:01:18;;;;;;;1.92;1.83;;;16.10;99.90;;;;;;5042804;28;20204;-84
2022/09/20 13:03:48;;;;;;;1.70;1.60;;;16.10;99.90;;;;;;5043400;28;20259;-87
2022/09/20 13:06:19;;;;;;;2.55;1.58;;;15.90;99.90;;;;;;5036067;28;20489;-87
2022/09/20 13:09:07;;;;;;;1.77;1.65;;;16.10;99.90;;;;;;5044104;28;20506;-82
2022/09/20 13:11:47;;;;;;;2.53;2.08;;;16.00;99.90;;;;;;5043922;28;20244;-85
2022/09/20 13:14:21;;;;;;;3.33;1.73;;;15.70;99.90;;;;;;5040673;28;20236;-84
2022/09/20 13:17:12;;;;;;;5.68;2.00;;;15.60;99.90;;;;;;5021260;28;20221;-83
2022/09/20 13:19:48;;;;;;;1.70;1.60;;;15.20;99.90;;;;;;5040418;28;20202;-85
2022/09/20 13:22:42;;;;;;;3.30;1.52;;;15.00;99.90;;;;;;5020607;28;20223;-85
2022/09/20 13:25:16;;;;;;;3.10;2.80;;;14.70;99.90;;;;;;5043349;28;20196;-84
2022/09/20 13:28:17;;;;;;;2.20;1.92;;;14.40;99.90;;;;;;5045552;28;20262;-85
2022/09/20 13:30:46;;;;;;;2.45;2.25;;;14.60;99.90;;;;;;5036284;28;20205;-84
2022/09/20 13:33:20;;;;;;;2.38;1.60;;;14.80;99.90;;;;;;5043090;28;20226;-83
2022/09/20 13:35:53;;;;;;;2.90;1.50;;;14.70;99.90;;;;;;5044331;28;20216;-85
2022/09/20 13:38:29;;;;;;;1.85;1.45;;;14.60;99.90;;;;;;5045078;28;20212;-87
2022/09/20 13:41:11;;;;;;;1.80;1.70;;;14.40;99.90;;;;;;5041370;28;20504;-89
2022/09/20 13:43:45;;;;;;;2.30;1.83;;;14.30;99.90;;;;;;5012150;28;20223;-84
2022/09/20 13:46:27;;;;;;;1.88;1.65;;;14.10;99.90;;;;;;5045901;28;20208;-85
2022/09/20 13:49:20;;;;;;;1.85;1.75;;;14.00;99.90;;;;;;5036582;28;20216;-84
2022/09/20 13:51:50;;;;;;;1.95;1.80;;;13.90;99.90;;;;;;5046086;28;20275;-84
2022/09/20 13:54:20;;;;;;;1.73;1.63;;;13.80;99.90;;;;;;5041646;28;20232;-88
2022/09/20 13:56:48;;;;;;;1.65;1.55;;;13.70;99.90;;;;;;5045399;28;20225;-88
2022/09/20 13:59:17;;;;;;;1.90;1.55;;;13.60;99.90;;;;;;5045391;28;20243;-82
2022/09/20 14:01:53;;;;;;;3.90;2.13;;;13.60;99.90;;;;;;5040117;28;20275;-86
2022/09/20 14:04:22;;;;;;;2.53;1.88;;;13.50;99.90;;;;;;5044475;28;20191;-84
2022/09/20 14:06:52;;;;;;;1.92;1.83;;;13.50;99.90;;;;;;5044699;28;20264;-84
2022/09/20 14:09:39;;;;;;;2.15;1.95;;;13.50;99.90;;;;;;5022483;28;20212;-85
2022/09/20 14:12:10;;;;;;;1.77;1.65;;;13.60;99.90;;;;;;5045579;28;20223;-86
2022/09/20 14:14:40;;;;;;;1.63;1.48;;;13.50;99.90;;;;;;5043562;28;20302;-85
2022/09/20 14:17:11;;;;;;;2.00;1.90;;;13.50;99.90;;;;;;5039101;28;20244;-84
2022/09/20 14:19:41;;;;;;;2.08;1.95;;;13.40;99.90;;;;;;5044351;28;20207;-82
2022/09/20 14:22:17;;;;;;;2.45;2.25;;;13.40;99.90;;;;;;5024370;28;20184;-84
2022/09/20 14:25:16;;;;;;;2.58;2.25;;;13.40;99.90;;;;;;5024409;28;20207;-85
2022/09/20 14:27:43;;;;;;;1.98;1.80;;;13.30;99.90;;;;;;5055883;28;20201;-84
2022/09/20 14:30:35;;;;;;;2.22;2.13;;;13.30;99.90;;;;;;5049318;28;20201;-86
2022/09/20 14:41:07;;;;;;;3.28;2.60;;;13.30;99.90;;;;;;6042786;22;20945;-86
2022/09/20 14:51:41;;;;;;;5.25;2.80;;;13.50;99.90;;;;;;5766358;22;20239;-86
2022/09/20 15:13:04;;;;;;;3.15;2.42;;;13.80;99.90;;;;;;5351091;22;20238;-87
2022/09/20 15:21:04;;;;;;;3.38;2.35;;;13.80;99.90;;;;;;5731279;22;20221;-85
2022/09/20 15:23:32;;;;;;;2.03;1.80;;;13.70;99.90;;;;;;5065504;28;20204;-86
2022/09/20 15:26:01;;;;;;;2.08;1.88;;;13.80;99.90;;;;;;5058132;28;20245;-87
2022/09/20 15:28:35;;;;;;;1.60;1.50;;;13.90;99.90;;;;;;5319756;22;20225;-83
2022/09/20 15:31:02;;;;;;;2.78;1.58;;;14.00;99.90;;;;;;5053401;28;20195;-85
2022/09/20 15:33:34;;;;;;;1.90;1.50;;;14.00;99.90;;;;;;5038960;28;20250;-87
2022/09/20 15:36:11;;;;;;;1.77;1.65;;;14.00;99.90;;;;;;5048686;28;20241;-88
2022/09/20 15:38:42;;;;;;;1.60;1.50;;;14.10;99.90;;;;;;5043331;28;20197;-90
2022/09/20 15:41:09;;;;;;;1.10;1.02;;;14.10;99.90;;;;;;5016185;28;20196;-85
2022/09/20 15:43:36;;;;;;;1.40;1.30;;;14.30;99.90;;;;;;5045515;28;20211;-87
2022/09/20 15:46:20;;;;;;;1.80;1.70;;;14.20;99.90;;;;;;5032886;28;20296;-86
2022/09/20 15:48:46;;;;;;;4.22;1.92;;;14.20;99.90;;;;;;5044453;28;20213;-87
2022/09/20 15:51:14;;;;;;;1.55;1.45;;;14.20;99.90;;;;;;5027762;28;20205;-82
2022/09/20 15:53:55;;;;;;;4.03;1.42;;;14.30;99.90;;;;;;5044373;28;20212;-89
2022/09/20 15:56:30;;;;;;;1.98;1.75;;;14.30;99.90;;;;;;5040335;28;20229;-89
2022/09/20 15:59:03;;;;;;;3.25;2.10;;;14.40;99.90;;;;;;5043591;28;20263;-91
2022/09/20 16:01:38;;;;;;;2.65;1.65;;;14.50;99.90;;;;;;5042889;28;20197;-88
2022/09/20 16:04:08;;;;;;;1.33;1.23;;;14.60;99.90;;;;;;5026267;28;20272;-87
2022/09/20 16:06:37;;;;;;;1.40;1.15;;;14.60;99.90;;;;;;5041088;28;20209;-88
2022/09/20 16:09:06;;;;;;;1.60;1.50;;;14.50;99.90;;;;;;5046369;28;20189;-89
2022/09/20 16:11:34;;;;;;;2.03;1.92;;;14.40;99.90;;;;;;5009981;28;20331;-88
2022/09/20 16:14:03;;;;;;;2.58;2.38;;;14.20;99.90;;;;;;5031221;28;20201;-88
2022/09/20 16:16:32;;;;;;;3.28;1.50;;;14.00;99.90;;;;;;5040525;28;20216;-85
2022/09/20 16:19:21;;;;;;;2.00;1.90;;;13.80;99.90;;;;;;5043267;28;20221;-87
2022/09/20 16:21:53;;;;;;;3.20;1.52;;;13.60;99.90;;;;;;5022573;28;20290;-84
2022/09/20 16:24:32;;;;;;;4.97;1.70;;;13.30;99.90;;;;;;5027704;28;20270;-88
2022/09/20 16:27:03;;;;;;;2.28;2.08;;;13.10;99.90;;;;;;5050181;28;20211;-87
2022/09/20 16:29:31;;;;;;;3.83;1.67;;;12.90;99.90;;;;;;5022469;28;20204;-88
2022/09/20 16:32:02;;;;;;;4.10;1.73;;;12.80;99.90;;;;;;5043657;28;20208;-87
2022/09/20 16:34:33;;;;;;;2.22;1.90;;;12.60;99.90;;;;;;5043095;28;20671;-89
2022/09/20 16:37:13;;;;;;;3.28;2.67;;;12.40;99.90;;;;;;5045836;28;20227;-89
2022/09/20 16:39:40;;;;;;;2.22;1.90;;;12.30;99.90;;;;;;5030068;28;20212;-87
2022/09/20 16:42:11;;;;;;;2.60;2.33;;;12.20;99.90;;;;;;5047797;28;20208;-89
2022/09/20 16:44:41;;;;;;;3.65;2.40;;;12.10;99.90;;;;;;5355659;22;20243;-88
2022/09/20 16:47:20;;;;;;;6.82;2.65;;;12.00;99.90;;;;;;5543702;22;20239;-89
2022/09/20 16:57:54;;;;;;;2.85;2.50;;;12.30;99.90;;;;;;5084663;22;20235;-90
2022/09/20 17:13:40;;;;;;;4.63;2.75;;;12.30;99.90;;;;;;5208274;22;20433;-90
2022/09/20 17:18:44;;;;;;;3.53;3.05;;;11.90;99.90;;;;;;5168018;22;20317;-89
2022/09/20 17:21:16;;;;;;;5.10;3.17;;;11.80;99.90;;;;;;5046621;28;20218;-90
2022/09/20 17:23:53;;;;;;;5.22;3.20;;;11.80;99.90;;;;;;5036219;28;20204;-88
2022/09/20 17:26:34;;;;;;;3.22;2.92;;;11.90;99.90;;;;;;5714899;22;20988;-88
2022/09/20 17:29:09;;;;;;;4.07;3.15;;;11.70;99.90;;;;;;5044377;28;20234;-88
2022/09/20 17:31:41;;;;;;;5.13;2.97;;;11.70;99.90;;;;;;5044731;28;20530;-87
2022/09/20 17:34:20;;;;;;;2.88;2.67;;;11.80;99.90;;;;;;5044502;28;20184;-88
2022/09/20 17:36:49;;;;;;;3.95;3.13;;;11.90;99.90;;;;;;5049249;28;20231;-88
2022/09/20 17:39:17;;;;;;;4.00;2.53;;;12.00;99.90;;;;;;5044944;28;20277;-90
2022/09/20 17:41:46;;;;;;;5.70;3.65;;;11.90;99.90;;;;;;5029524;28;20208;-91
2022/09/20 17:44:14;;;;;;;2.95;2.63;;;11.80;99.90;;;;;;5045381;28;20214;-88
2022/09/20 17:49:21;;;;;;;3.97;2.90;;;11.50;99.90;;;;;;5079682;22;20235;-86
2022/09/20 17:51:54;;;;;;;3.88;2.90;;;11.40;99.90;;;;;;5067420;28;20198;-88
2022/09/20 17:54:23;;;;;;;2.78;2.35;;;11.40;99.90;;;;;;5065703;28;20199;-86
2022/09/20 17:56:56;;;;;;;3.80;2.65;;;11.40;99.90;;;;;;5069086;28;20250;-86
2022/09/20 17:59:23;;;;;;;2.80;2.53;;;11.20;99.90;;;;;;5077774;28;20183;-90
2022/09/20 18:01:55;;;;;;;4.28;3.08;;;11.10;99.90;;;;;;5060308;28;20248;-88